sensor_id;sensor_type;location;lat;lon;timestamp;pressure;altitude;pressure_sealevel;temperature;humidity
72685;BME280;61365;52.162;4.500;2023-03-22T00:00:54;100807.66;;;9.59;84.52
72685;BME280;61365;52.162;4.500;2023-03-22T00:03:21;100803.28;;;9.53;83.59
72685;BME280;61365;52.162;4.500;2023-03-22T00:05:48;100800.66;;;9.53;84.10
72685;BME280;61365;52.162;4.500;2023-03-22T00:08:16;100799.78;;;9.46;84.48
72685;BME280;61365;52.162;4.500;2023-03-22T00:10:45;100792.84;;;9.55;84.14
72685;BME280;61365;52.162;4.500;2023-03-22T00:13:12;100796.34;;;9.57;84.23
72685;BME280;61365;52.162;4.500;2023-03-22T00:15:38;100797.19;;;9.56;84.20
72685;BME280;61365;52.162;4.500;2023-03-22T00:18:09;100791.97;;;9.65;84.33
72685;BME280;61365;52.162;4.500;2023-03-22T00:20:37;100789.34;;;9.73;83.73
72685;BME280;61365;52.162;4.500;2023-03-22T00:23:04;100786.75;;;9.67;83.43
72685;BME280;61365;52.162;4.500;2023-03-22T00:25:31;100783.25;;;9.68;84.05
72685;BME280;61365;52.162;4.500;2023-03-22T00:27:57;100776.25;;;9.67;84.21
72685;BME280;61365;52.162;4.500;2023-03-22T00:30:23;100775.38;;;9.66;84.13
72685;BME280;61365;52.162;4.500;2023-03-22T00:32:49;100777.13;;;9.67;83.72
72685;BME280;61365;52.162;4.500;2023-03-22T00:35:16;100774.50;;;9.64;84.22
72685;BME280;61365;52.162;4.500;2023-03-22T00:37:42;100770.16;;;9.80;84.26
72685;BME280;61365;52.162;4.500;2023-03-22T00:40:09;100768.41;;;9.71;83.48
72685;BME280;61365;52.162;4.500;2023-03-22T00:42:38;100764.91;;;9.71;83.49
72685;BME280;61365;52.162;4.500;2023-03-22T00:45:06;100764.91;;;9.65;83.62
72685;BME280;61365;52.162;4.500;2023-03-22T00:47:34;100756.16;;;9.63;84.43
72685;BME280;61365;52.162;4.500;2023-03-22T00:50:00;100752.66;;;9.60;83.95
72685;BME280;61365;52.162;4.500;2023-03-22T00:52:27;100746.56;;;9.69;84.19
72685;BME280;61365;52.162;4.500;2023-03-22T00:54:54;100729.06;;;9.73;84.14
72685;BME280;61365;52.162;4.500;2023-03-22T00:57:21;100737.81;;;9.61;84.11
72685;BME280;61365;52.162;4.500;2023-03-22T00:59:47;100725.59;;;9.65;83.79
72685;BME280;61365;52.162;4.500;2023-03-22T01:02:14;100722.09;;;9.66;83.48
72685;BME280;61365;52.162;4.500;2023-03-22T01:04:41;100733.47;;;9.68;83.92
72685;BME280;61365;52.162;4.500;2023-03-22T01:07:11;100727.34;;;9.67;83.64
72685;BME280;61365;52.162;4.500;2023-03-22T01:09:43;100723.00;;;9.68;83.84
72685;BME280;61365;52.162;4.500;2023-03-22T01:12:09;100717.75;;;9.72;83.76
72685;BME280;61365;52.162;4.500;2023-03-22T01:14:37;100715.97;;;9.68;84.03
72685;BME280;61365;52.162;4.500;2023-03-22T01:17:03;100712.47;;;9.66;83.86
72685;BME280;61365;52.162;4.500;2023-03-22T01:19:30;100707.25;;;9.55;83.65
72685;BME280;61365;52.162;4.500;2023-03-22T01:21:56;100701.13;;;9.56;83.87
72685;BME280;61365;52.162;4.500;2023-03-22T01:24:22;100693.25;;;9.45;83.71
72685;BME280;61365;52.162;4.500;2023-03-22T01:26:49;100687.13;;;9.29;84.66
72685;BME280;61365;52.162;4.500;2023-03-22T01:29:15;100688.00;;;9.42;84.91
72685;BME280;61365;52.162;4.500;2023-03-22T01:31:41;100683.66;;;9.34;84.55
72685;BME280;61365;52.162;4.500;2023-03-22T01:34:08;100682.78;;;9.38;84.91
72685;BME280;61365;52.162;4.500;2023-03-22T01:36:34;100674.03;;;9.37;84.47
72685;BME280;61365;52.162;4.500;2023-03-22T01:39:01;100673.19;;;9.43;84.52
72685;BME280;61365;52.162;4.500;2023-03-22T01:41:28;100662.69;;;9.30;84.25
72685;BME280;61365;52.162;4.500;2023-03-22T01:46:34;100643.47;;;9.28;84.14
72685;BME280;61365;52.162;4.500;2023-03-22T01:49:01;100642.63;;;9.32;84.58
72685;BME280;61365;52.162;4.500;2023-03-22T01:51:31;100635.63;;;9.36;84.01
72685;BME280;61365;52.162;4.500;2023-03-22T01:54:02;100633.91;;;9.43;83.70
72685;BME280;61365;52.162;4.500;2023-03-22T01:56:34;100636.53;;;9.43;83.94
72685;BME280;61365;52.162;4.500;2023-03-22T01:59:02;100635.63;;;9.47;83.79
72685;BME280;61365;52.162;4.500;2023-03-22T02:01:29;100641.75;;;9.48;82.89
72685;BME280;61365;52.162;4.500;2023-03-22T02:06:22;100626.03;;;9.48;82.81
72685;BME280;61365;52.162;4.500;2023-03-22T02:08:49;100623.44;;;9.43;82.94
72685;BME280;61365;52.162;4.500;2023-03-22T02:11:20;100619.91;;;9.50;82.88
72685;BME280;61365;52.162;4.500;2023-03-22T02:27:15;100598.94;;;9.67;83.29
72685;BME280;61365;52.162;4.500;2023-03-22T02:29:45;100597.16;;;9.88;82.65
72685;BME280;61365;52.162;4.500;2023-03-22T02:46:03;100581.47;;;9.79;84.07
72685;BME280;61365;52.162;4.500;2023-03-22T02:49:20;100576.22;;;9.77;84.17
72685;BME280;61365;52.162;4.500;2023-03-22T02:51:41;100575.34;;;9.83;84.05
72685;BME280;61365;52.162;4.500;2023-03-22T02:54:12;100574.44;;;9.87;83.77
72685;BME280;61365;52.162;4.500;2023-03-22T02:56:47;100568.34;;;9.88;84.62
72685;BME280;61365;52.162;4.500;2023-03-22T02:59:18;100569.22;;;9.87;84.53
72685;BME280;61365;52.162;4.500;2023-03-22T03:01:49;100566.59;;;9.93;83.68
72685;BME280;61365;52.162;4.500;2023-03-22T03:04:20;100564.81;;;9.97;83.41
72685;BME280;61365;52.162;4.500;2023-03-22T03:06:51;100565.66;;;10.02;83.53
72685;BME280;61365;52.162;4.500;2023-03-22T03:09:22;100555.19;;;10.06;83.01
72685;BME280;61365;52.162;4.500;2023-03-22T03:11:50;100556.97;;;9.98;83.32
72685;BME280;61365;52.162;4.500;2023-03-22T03:14:19;100564.84;;;9.90;83.50
72685;BME280;61365;52.162;4.500;2023-03-22T03:19:52;100553.44;;;10.05;83.39
72685;BME280;61365;52.162;4.500;2023-03-22T03:33:50;100549.13;;;9.89;84.14
72685;BME280;61365;52.162;4.500;2023-03-22T03:36:18;100545.59;;;9.93;83.96
72685;BME280;61365;52.162;4.500;2023-03-22T03:38:48;100537.75;;;9.91;83.67
72685;BME280;61365;52.162;4.500;2023-03-22T03:41:21;100547.34;;;9.97;84.13
72685;BME280;61365;52.162;4.500;2023-03-22T03:43:51;100541.25;;;9.90;84.30
72685;BME280;61365;52.162;4.500;2023-03-22T03:46:20;100548.22;;;9.96;83.98
72685;BME280;61365;52.162;4.500;2023-03-22T03:48:47;100544.78;;;9.83;84.44
72685;BME280;61365;52.162;4.500;2023-03-22T03:51:16;100546.50;;;9.90;84.25
72685;BME280;61365;52.162;4.500;2023-03-22T03:53:42;100545.59;;;9.93;84.05
72685;BME280;61365;52.162;4.500;2023-03-22T03:56:08;100548.25;;;9.84;84.54
72685;BME280;61365;52.162;4.500;2023-03-22T03:58:35;100540.38;;;9.88;84.72
72685;BME280;61365;52.162;4.500;2023-03-22T04:01:01;100541.25;;;9.89;84.90
72685;BME280;61365;52.162;4.500;2023-03-22T04:03:29;100540.31;;;10.04;84.99
72685;BME280;61365;52.162;4.500;2023-03-22T04:05:55;100532.53;;;9.85;84.82
72685;BME280;61365;52.162;4.500;2023-03-22T04:08:21;100515.06;;;9.84;85.14
72685;BME280;61365;52.162;4.500;2023-03-22T04:10:48;100525.53;;;9.84;85.45
72685;BME280;61365;52.162;4.500;2023-03-22T04:13:17;100521.19;;;9.82;85.45
72685;BME280;61365;52.162;4.500;2023-03-22T04:15:46;100522.88;;;10.00;84.44
72685;BME280;61365;52.162;4.500;2023-03-22T04:18:16;100528.16;;;9.89;85.23
72685;BME280;61365;52.162;4.500;2023-03-22T04:20:44;100529.03;;;9.86;85.65
72685;BME280;61365;52.162;4.500;2023-03-22T04:23:11;100522.03;;;9.87;85.27
72685;BME280;61365;52.162;4.500;2023-03-22T04:25:37;100525.50;;;9.95;85.06
72685;BME280;61365;52.162;4.500;2023-03-22T04:28:03;100517.66;;;9.95;85.11
72685;BME280;61365;52.162;4.500;2023-03-22T04:30:29;100516.75;;;10.05;84.47
72685;BME280;61365;52.162;4.500;2023-03-22T04:33:03;100522.88;;;9.98;85.20
72685;BME280;61365;52.162;4.500;2023-03-22T04:35:33;100504.53;;;9.92;85.13
72685;BME280;61365;52.162;4.500;2023-03-22T04:37:59;100508.03;;;9.91;84.96
72685;BME280;61365;52.162;4.500;2023-03-22T04:40:26;100506.31;;;9.87;85.17
72685;BME280;61365;52.162;4.500;2023-03-22T04:42:56;100504.56;;;9.90;84.95
72685;BME280;61365;52.162;4.500;2023-03-22T04:45:23;100495.78;;;10.02;84.39
72685;BME280;61365;52.162;4.500;2023-03-22T04:47:53;100497.50;;;10.02;84.58
72685;BME280;61365;52.162;4.500;2023-03-22T04:50:20;100493.16;;;9.99;84.62
72685;BME280;61365;52.162;4.500;2023-03-22T04:52:46;100491.34;;;10.14;83.90
72685;BME280;61365;52.162;4.500;2023-03-22T04:55:12;100488.75;;;10.09;83.97
72685;BME280;61365;52.162;4.500;2023-03-22T04:57:38;100482.63;;;10.12;83.87
72685;BME280;61365;52.162;4.500;2023-03-22T05:00:05;100486.91;;;10.24;83.66
72685;BME280;61365;52.162;4.500;2023-03-22T05:02:33;100477.34;;;10.19;83.09
72685;BME280;61365;52.162;4.500;2023-03-22T05:04:59;100477.47;;;9.95;83.56
72685;BME280;61365;52.162;4.500;2023-03-22T05:07:25;100482.66;;;10.05;83.18
72685;BME280;61365;52.162;4.500;2023-03-22T05:09:51;100477.34;;;10.15;82.91
72685;BME280;61365;52.162;4.500;2023-03-22T05:12:18;100476.47;;;10.16;82.90
72685;BME280;61365;52.162;4.500;2023-03-22T05:14:44;100477.34;;;10.18;82.50
72685;BME280;61365;52.162;4.500;2023-03-22T05:17:10;100481.69;;;10.24;82.76
72685;BME280;61365;52.162;4.500;2023-03-22T05:19:36;100475.56;;;10.29;82.26
72685;BME280;61365;52.162;4.500;2023-03-22T05:22:02;100470.38;;;10.18;81.95
72685;BME280;61365;52.162;4.500;2023-03-22T05:24:29;100473.06;;;10.04;82.37
72685;BME280;61365;52.162;4.500;2023-03-22T05:26:55;100467.69;;;10.21;82.55
72685;BME280;61365;52.162;4.500;2023-03-22T05:29:26;100461.69;;;10.02;82.00
72685;BME280;61365;52.162;4.500;2023-03-22T05:31:52;100459.94;;;10.07;82.25
72685;BME280;61365;52.162;4.500;2023-03-22T05:34:19;100453.84;;;10.02;82.70
72685;BME280;61365;52.162;4.500;2023-03-22T05:36:46;100454.75;;;9.92;82.50
72685;BME280;61365;52.162;4.500;2023-03-22T05:39:12;100452.06;;;10.09;82.24
72685;BME280;61365;52.162;4.500;2023-03-22T05:41:40;100450.28;;;10.10;81.48
72685;BME280;61365;52.162;4.500;2023-03-22T05:44:06;100452.78;;;10.33;80.18
72685;BME280;61365;52.162;4.500;2023-03-22T05:46:32;100453.69;;;10.26;80.48
72685;BME280;61365;52.162;4.500;2023-03-22T05:48:58;100445.09;;;10.03;81.14
72685;BME280;61365;52.162;4.500;2023-03-22T05:51:25;100442.41;;;10.13;81.19
72685;BME280;61365;52.162;4.500;2023-03-22T05:53:52;100442.28;;;10.33;80.80
72685;BME280;61365;52.162;4.500;2023-03-22T05:56:19;100440.66;;;10.13;80.87
72685;BME280;61365;52.162;4.500;2023-03-22T05:58:48;100457.34;;;10.01;81.25
72685;BME280;61365;52.162;4.500;2023-03-22T06:01:15;100456.38;;;10.15;81.26
72685;BME280;61365;52.162;4.500;2023-03-22T06:03:41;100450.22;;;10.24;80.34
72685;BME280;61365;52.162;4.500;2023-03-22T06:06:08;100443.25;;;10.21;80.04
72685;BME280;61365;52.162;4.500;2023-03-22T06:08:38;100451.06;;;10.29;79.44
72685;BME280;61365;52.162;4.500;2023-03-22T06:11:05;100445.78;;;10.35;79.19
72685;BME280;61365;52.162;4.500;2023-03-22T06:13:32;100443.13;;;10.43;79.50
72685;BME280;61365;52.162;4.500;2023-03-22T06:15:59;100438.84;;;10.29;80.32
72685;BME280;61365;52.162;4.500;2023-03-22T06:18:27;100439.69;;;10.31;79.59
72685;BME280;61365;52.162;4.500;2023-03-22T06:20:54;100434.41;;;10.41;79.83
72685;BME280;61365;52.162;4.500;2023-03-22T06:23:21;100447.47;;;10.48;78.97
72685;BME280;61365;52.162;4.500;2023-03-22T06:25:47;100447.31;;;10.69;78.09
72685;BME280;61365;52.162;4.500;2023-03-22T06:28:13;100444.88;;;10.37;79.14
72685;BME280;61365;52.162;4.500;2023-03-22T06:30:39;100449.25;;;10.45;78.51
72685;BME280;61365;52.162;4.500;2023-03-22T06:33:06;100451.88;;;10.45;78.97
72685;BME280;61365;52.162;4.500;2023-03-22T06:35:32;100440.53;;;10.40;79.08
72685;BME280;61365;52.162;4.500;2023-03-22T06:37:59;100443.16;;;10.35;79.31
72685;BME280;61365;52.162;4.500;2023-03-22T06:40:25;100446.75;;;10.20;80.96
72685;BME280;61365;52.162;4.500;2023-03-22T06:42:52;100441.47;;;10.23;80.06
72685;BME280;61365;52.162;4.500;2023-03-22T06:45:21;100442.25;;;10.44;79.99
72685;BME280;61365;52.162;4.500;2023-03-22T06:47:48;100451.72;;;10.68;80.18
72685;BME280;61365;52.162;4.500;2023-03-22T06:50:15;100453.31;;;10.88;78.67
72685;BME280;61365;52.162;4.500;2023-03-22T06:52:41;100445.59;;;10.64;79.33
72685;BME280;61365;52.162;4.500;2023-03-22T06:55:08;100435.13;;;10.61;78.63
72685;BME280;61365;52.162;4.500;2023-03-22T06:57:34;100430.69;;;10.70;78.37
72685;BME280;61365;52.162;4.500;2023-03-22T07:00:00;100441.09;;;10.80;78.58
72685;BME280;61365;52.162;4.500;2023-03-22T07:02:26;100436.91;;;10.61;79.03
72685;BME280;61365;52.162;4.500;2023-03-22T07:04:52;100427.97;;;10.84;78.27
72685;BME280;61365;52.162;4.500;2023-03-22T07:07:18;100426.22;;;10.82;78.12
72685;BME280;61365;52.162;4.500;2023-03-22T07:09:45;100429.03;;;10.59;78.72
72685;BME280;61365;52.162;4.500;2023-03-22T07:12:11;100430.03;;;10.41;79.53
72685;BME280;61365;52.162;4.500;2023-03-22T07:14:37;100434.34;;;10.50;79.28
72685;BME280;61365;52.162;4.500;2023-03-22T07:17:03;100437.88;;;10.43;80.28
72685;BME280;61365;52.162;4.500;2023-03-22T07:19:29;100440.53;;;10.35;80.06
72685;BME280;61365;52.162;4.500;2023-03-22T07:21:56;100424.56;;;10.71;78.47
72685;BME280;61365;52.162;4.500;2023-03-22T07:24:22;100443.91;;;10.59;79.11
72685;BME280;61365;52.162;4.500;2023-03-22T07:26:48;100434.16;;;10.73;79.15
72685;BME280;61365;52.162;4.500;2023-03-22T07:29:15;100434.28;;;10.58;78.63
72685;BME280;61365;52.162;4.500;2023-03-22T07:31:41;100434.25;;;10.64;79.05
72685;BME280;61365;52.162;4.500;2023-03-22T07:34:07;100433.13;;;10.93;78.11
72685;BME280;61365;52.162;4.500;2023-03-22T07:36:33;100436.84;;;10.67;79.49
72685;BME280;61365;52.162;4.500;2023-03-22T07:39:00;100436.72;;;10.84;78.74
72685;BME280;61365;52.162;4.500;2023-03-22T07:41:26;100426.03;;;11.01;78.74
72685;BME280;61365;52.162;4.500;2023-03-22T07:43:54;100437.72;;;10.68;78.80
72685;BME280;61365;52.162;4.500;2023-03-22T07:46:20;100453.41;;;10.74;79.59
72685;BME280;61365;52.162;4.500;2023-03-22T07:48:47;100443.72;;;10.80;79.40
72685;BME280;61365;52.162;4.500;2023-03-22T07:51:13;100442.81;;;10.88;78.32
72685;BME280;61365;52.162;4.500;2023-03-22T07:53:39;100442.84;;;10.83;79.14
72685;BME280;61365;52.162;4.500;2023-03-22T07:56:06;100449.19;;;10.54;80.44
72685;BME280;61365;52.162;4.500;2023-03-22T07:58:32;100435.97;;;10.68;81.14
72685;BME280;61365;52.162;4.500;2023-03-22T08:01:02;100433.28;;;10.76;79.81
72685;BME280;61365;52.162;4.500;2023-03-22T08:03:29;100452.41;;;10.87;80.32
72685;BME280;61365;52.162;4.500;2023-03-22T08:05:55;100434.22;;;10.65;80.74
72685;BME280;61365;52.162;4.500;2023-03-22T08:08:28;100435.19;;;10.54;81.47
72685;BME280;61365;52.162;4.500;2023-03-22T08:10:55;100437.91;;;10.35;82.43
72685;BME280;61365;52.162;4.500;2023-03-22T08:13:21;100433.44;;;10.56;82.85
72685;BME280;61365;52.162;4.500;2023-03-22T08:15:47;100446.59;;;10.51;82.18
72685;BME280;61365;52.162;4.500;2023-03-22T08:18:13;100444.00;;;10.46;82.86
72685;BME280;61365;52.162;4.500;2023-03-22T08:20:39;100448.44;;;10.29;84.05
72685;BME280;61365;52.162;4.500;2023-03-22T08:23:05;100436.22;;;10.29;84.97
72685;BME280;61365;52.162;4.500;2023-03-22T08:25:35;100441.41;;;10.37;84.15
72685;BME280;61365;52.162;4.500;2023-03-22T08:28:02;100438.78;;;10.35;84.43
72685;BME280;61365;52.162;4.500;2023-03-22T08:30:28;100431.03;;;10.17;85.28
72685;BME280;61365;52.162;4.500;2023-03-22T08:32:54;100436.34;;;10.04;85.91
72685;BME280;61365;52.162;4.500;2023-03-22T08:35:20;100428.41;;;10.17;85.96
72685;BME280;61365;52.162;4.500;2023-03-22T08:37:46;100427.56;;;10.10;86.48
72685;BME280;61365;52.162;4.500;2023-03-22T08:40:12;100431.00;;;10.21;86.12
72685;BME280;61365;52.162;4.500;2023-03-22T08:42:39;100437.16;;;10.14;86.35
72685;BME280;61365;52.162;4.500;2023-03-22T08:45:05;100428.47;;;10.07;86.41
72685;BME280;61365;52.162;4.500;2023-03-22T08:47:33;100426.75;;;10.03;86.17
72685;BME280;61365;52.162;4.500;2023-03-22T08:49:59;100431.06;;;10.12;86.33
72685;BME280;61365;52.162;4.500;2023-03-22T08:52:25;100431.06;;;10.12;85.85
72685;BME280;61365;52.162;4.500;2023-03-22T08:54:51;100423.09;;;10.28;85.28
72685;BME280;61365;52.162;4.500;2023-03-22T08:57:18;100435.34;;;10.30;85.80
72685;BME280;61365;52.162;4.500;2023-03-22T08:59:46;100429.28;;;10.19;85.35
72685;BME280;61365;52.162;4.500;2023-03-22T09:02:13;100420.31;;;10.57;85.37
72685;BME280;61365;52.162;4.500;2023-03-22T09:04:40;100430.88;;;10.46;85.17
72685;BME280;61365;52.162;4.500;2023-03-22T09:07:06;100430.97;;;10.28;85.80
72685;BME280;61365;52.162;4.500;2023-03-22T09:09:32;100427.47;;;10.26;85.96
72685;BME280;61365;52.162;4.500;2023-03-22T09:11:58;100437.16;;;10.20;86.43
72685;BME280;61365;52.162;4.500;2023-03-22T09:14:24;100431.78;;;10.41;85.63
72685;BME280;61365;52.162;4.500;2023-03-22T09:16:50;100434.44;;;10.30;86.34
72685;BME280;61365;52.162;4.500;2023-03-22T09:19:16;100439.66;;;10.34;86.61
72685;BME280;61365;52.162;4.500;2023-03-22T09:21:42;100433.53;;;10.35;86.35
72685;BME280;61365;52.162;4.500;2023-03-22T09:24:08;100429.25;;;10.22;86.63
72685;BME280;61365;52.162;4.500;2023-03-22T09:26:35;100432.66;;;10.41;86.47
72685;BME280;61365;52.162;4.500;2023-03-22T09:29:01;100433.53;;;10.37;85.85
72685;BME280;61365;52.162;4.500;2023-03-22T09:31:28;100437.00;;;10.44;86.46
72685;BME280;61365;52.162;4.500;2023-03-22T09:33:54;100426.53;;;10.37;86.81
72685;BME280;61365;52.162;4.500;2023-03-22T09:36:20;100430.81;;;10.52;86.80
72685;BME280;61365;52.162;4.500;2023-03-22T09:38:46;100423.84;;;10.50;86.24
72685;BME280;61365;52.162;4.500;2023-03-22T09:41:15;100434.53;;;10.20;86.55
72685;BME280;61365;52.162;4.500;2023-03-22T09:43:59;100437.97;;;10.24;86.48
72685;BME280;61365;52.162;4.500;2023-03-22T09:46:29;100432.69;;;10.33;86.90
72685;BME280;61365;52.162;4.500;2023-03-22T09:49:02;100434.25;;;10.64;86.25
72685;BME280;61365;52.162;4.500;2023-03-22T09:51:38;100433.41;;;10.59;85.76
72685;BME280;61365;52.162;4.500;2023-03-22T09:54:28;100433.38;;;10.60;85.72
72685;BME280;61365;52.162;4.500;2023-03-22T10:02:25;100437.03;;;10.41;86.85
72685;BME280;61365;52.162;4.500;2023-03-22T10:05:07;100441.47;;;10.21;86.96
72685;BME280;61365;52.162;4.500;2023-03-22T10:10:12;100441.41;;;10.42;85.96
72685;BME280;61365;52.162;4.500;2023-03-22T10:15:52;100436.00;;;10.62;86.12
72685;BME280;61365;52.162;4.500;2023-03-22T10:21:12;100422.94;;;10.56;86.22
72685;BME280;61365;52.162;4.500;2023-03-22T10:23:42;100419.44;;;10.58;86.85
72685;BME280;61365;52.162;4.500;2023-03-22T10:26:38;100419.41;;;10.60;86.10
72685;BME280;61365;52.162;4.500;2023-03-22T10:29:14;100396.78;;;10.46;86.46
72685;BME280;61365;52.162;4.500;2023-03-22T10:31:49;100401.91;;;10.62;86.77
72685;BME280;61365;52.162;4.500;2023-03-22T10:34:19;100401.63;;;10.93;86.39
72685;BME280;61365;52.162;4.500;2023-03-22T10:36:50;100407.75;;;10.90;85.64
72685;BME280;61365;52.162;4.500;2023-03-22T10:41:51;100404.22;;;10.94;85.27
72685;BME280;61365;52.162;4.500;2023-03-22T10:44:19;100401.63;;;10.91;85.18
72685;BME280;61365;52.162;4.500;2023-03-22T10:46:48;100412.03;;;11.04;84.94
72685;BME280;61365;52.162;4.500;2023-03-22T10:49:28;100403.53;;;10.72;86.07
72685;BME280;61365;52.162;4.500;2023-03-22T10:52:01;100391.25;;;10.82;86.17
72685;BME280;61365;52.162;4.500;2023-03-22T10:54:29;100380.56;;;11.01;85.16
72685;BME280;61365;52.162;4.500;2023-03-22T10:56:56;100379.59;;;11.06;84.38
72685;BME280;61365;52.162;4.500;2023-03-22T11:04:49;100403.03;;;11.25;83.86
72685;BME280;61365;52.162;4.500;2023-03-22T11:07:34;100407.28;;;11.37;83.27
72685;BME280;61365;52.162;4.500;2023-03-22T11:12:36;100425.53;;;11.52;82.24
72685;BME280;61365;52.162;4.500;2023-03-22T11:15:06;100433.44;;;11.49;82.21
72685;BME280;61365;52.162;4.500;2023-03-22T11:17:44;100438.66;;;11.52;81.90
72685;BME280;61365;52.162;4.500;2023-03-22T11:20:13;100449.28;;;11.41;82.25
72685;BME280;61365;52.162;4.500;2023-03-22T11:22:42;100450.41;;;11.17;83.00
72685;BME280;61365;52.162;4.500;2023-03-22T11:28:05;100445.19;;;11.13;83.43
72685;BME280;61365;52.162;4.500;2023-03-22T11:30:32;100461.72;;;11.24;83.33
72685;BME280;61365;52.162;4.500;2023-03-22T11:35:25;100446.00;;;11.19;83.80
72685;BME280;61365;52.162;4.500;2023-03-22T11:37:54;100448.69;;;11.15;83.44
72685;BME280;61365;52.162;4.500;2023-03-22T11:40:24;100446.00;;;11.21;83.26
72685;BME280;61365;52.162;4.500;2023-03-22T11:42:54;100436.19;;;11.37;82.54
72685;BME280;61365;52.162;4.500;2023-03-22T11:45:27;100439.91;;;11.14;83.53
72685;BME280;61365;52.162;4.500;2023-03-22T11:48:04;100446.66;;;11.41;83.08
72685;BME280;61365;52.162;4.500;2023-03-22T11:50:38;100440.66;;;11.27;83.09
72685;BME280;61365;52.162;4.500;2023-03-22T11:53:09;100448.47;;;11.36;83.13
72685;BME280;61365;52.162;4.500;2023-03-22T11:55:41;100446.56;;;11.48;81.86
72685;BME280;61365;52.162;4.500;2023-03-22T11:58:19;100447.56;;;11.40;82.58
72685;BME280;61365;52.162;4.500;2023-03-22T12:00:58;100446.56;;;11.48;82.10
72685;BME280;61365;52.162;4.500;2023-03-22T12:03:28;100444.94;;;11.37;83.06
72685;BME280;61365;52.162;4.500;2023-03-22T12:06:02;100441.38;;;11.43;82.36
72685;BME280;61365;52.162;4.500;2023-03-22T12:08:39;100445.69;;;11.49;83.27
72685;BME280;61365;52.162;4.500;2023-03-22T12:11:18;100440.59;;;11.33;83.93
72685;BME280;61365;52.162;4.500;2023-03-22T12:16:33;100429.09;;;11.45;83.08
72685;BME280;61365;52.162;4.500;2023-03-22T12:19:21;100429.84;;;11.55;82.30
72685;BME280;61365;52.162;4.500;2023-03-22T12:21:54;100425.28;;;11.73;82.93
72685;BME280;61365;52.162;4.500;2023-03-22T12:24:25;100427.72;;;11.86;81.66
72685;BME280;61365;52.162;4.500;2023-03-22T12:26:54;100409.41;;;12.44;78.97
72685;BME280;61365;52.162;4.500;2023-03-22T12:29:29;100419.06;;;12.44;79.35
72685;BME280;61365;52.162;4.500;2023-03-22T12:32:11;100419.00;;;12.49;78.92
72685;BME280;61365;52.162;4.500;2023-03-22T12:34:45;100414.50;;;12.55;79.14
72685;BME280;61365;52.162;4.500;2023-03-22T12:37:15;100410.91;;;12.59;78.63
72685;BME280;61365;52.162;4.500;2023-03-22T12:39:47;100414.75;;;12.40;79.82
72685;BME280;61365;52.162;4.500;2023-03-22T12:42:31;100428.25;;;12.13;80.19
72685;BME280;61365;52.162;4.500;2023-03-22T12:45:04;100420.44;;;12.09;80.79
72685;BME280;61365;52.162;4.500;2023-03-22T12:47:38;100423.44;;;12.45;79.09
72685;BME280;61365;52.162;4.500;2023-03-22T12:52:46;100420.78;;;12.48;78.38
72685;BME280;61365;52.162;4.500;2023-03-22T12:55:27;100421.03;;;12.31;79.32
72685;BME280;61365;52.162;4.500;2023-03-22T12:57:59;100424.47;;;12.35;79.70
72685;BME280;61365;52.162;4.500;2023-03-22T13:00:26;100421.97;;;12.25;79.72
72685;BME280;61365;52.162;4.500;2023-03-22T13:03:00;100427.97;;;12.35;79.28
72685;BME280;61365;52.162;4.500;2023-03-22T13:05:48;100426.94;;;12.47;78.32
72685;BME280;61365;52.162;4.500;2023-03-22T13:08:23;100420.09;;;12.35;79.42
72685;BME280;61365;52.162;4.500;2023-03-22T13:15:57;100415.63;;;12.39;79.14
72685;BME280;61365;52.162;4.500;2023-03-22T13:21:12;100411.22;;;12.39;79.78
72685;BME280;61365;52.162;4.500;2023-03-22T13:26:44;100416.31;;;12.50;79.71
72685;BME280;61365;52.162;4.500;2023-03-22T13:29:24;100419.53;;;12.69;79.16
72685;BME280;61365;52.162;4.500;2023-03-22T13:32:00;100408.16;;;12.69;79.07
72685;BME280;61365;52.162;4.500;2023-03-22T13:34:38;100402.84;;;12.72;79.27
72685;BME280;61365;52.162;4.500;2023-03-22T13:37:16;100414.13;;;12.77;78.62
72685;BME280;61365;52.162;4.500;2023-03-22T13:39:59;100410.97;;;12.56;80.51
72685;BME280;61365;52.162;4.500;2023-03-22T13:43:00;100404.81;;;12.59;80.76
72685;BME280;61365;52.162;4.500;2023-03-22T13:45:30;100393.59;;;12.46;81.02
72685;BME280;61365;52.162;4.500;2023-03-22T13:48:42;100398.78;;;12.49;81.37
72685;BME280;61365;52.162;4.500;2023-03-22T13:50:57;100406.91;;;12.37;82.23
72685;BME280;61365;52.162;4.500;2023-03-22T13:53:35;100395.44;;;12.39;82.73
72685;BME280;61365;52.162;4.500;2023-03-22T13:56:04;100393.66;;;12.41;82.15
72685;BME280;61365;52.162;4.500;2023-03-22T14:01:31;100392.72;;;12.47;82.00
72685;BME280;61365;52.162;4.500;2023-03-22T14:04:06;100383.06;;;12.46;83.06
72685;BME280;61365;52.162;4.500;2023-03-22T14:09:41;100381.44;;;12.37;82.47
72685;BME280;61365;52.162;4.500;2023-03-22T14:15:04;100366.63;;;12.31;82.46
72685;BME280;61365;52.162;4.500;2023-03-22T14:17:40;100366.63;;;12.31;82.19
72685;BME280;61365;52.162;4.500;2023-03-22T14:20:13;100356.84;;;12.40;82.86
72685;BME280;61365;52.162;4.500;2023-03-22T14:22:48;100354.56;;;12.16;82.32
72685;BME280;61365;52.162;4.500;2023-03-22T14:25:23;100362.47;;;12.16;82.92
72685;BME280;61365;52.162;4.500;2023-03-22T14:27:52;100367.56;;;12.27;82.63
72685;BME280;61365;52.162;4.500;2023-03-22T14:30:42;100356.31;;;12.19;83.70
72685;BME280;61365;52.162;4.500;2023-03-22T14:33:13;100358.22;;;12.08;84.08
72685;BME280;61365;52.162;4.500;2023-03-22T14:35:52;100357.03;;;12.27;84.04
72685;BME280;61365;52.162;4.500;2023-03-22T14:38:22;100353.72;;;12.14;83.70
72685;BME280;61365;52.162;4.500;2023-03-22T14:43:58;100364.50;;;11.97;85.21
72685;BME280;61365;52.162;4.500;2023-03-22T14:46:31;100358.84;;;12.24;84.96
72685;BME280;61365;52.162;4.500;2023-03-22T14:49:00;100355.28;;;12.28;83.67